createdAt,value
2017-07-18T00:00:26.776Z,1015.5
2017-07-18T00:01:28.888Z,1015.5
2017-07-18T00:02:31.320Z,1015.5
2017-07-18T00:03:34.428Z,1015.6
2017-07-18T00:04:36.525Z,1015.5
2017-07-18T00:05:39.340Z,1015.6
2017-07-18T00:06:41.424Z,1015.5
2017-07-18T00:07:43.863Z,1015.6
2017-07-18T00:08:45.950Z,1015.6
2017-07-18T00:09:48.409Z,1015.5
2017-07-18T00:10:50.482Z,1015.5
2017-07-18T00:11:52.905Z,1015.5
2017-07-18T00:12:54.988Z,1015.6
2017-07-18T00:13:57.076Z,1015.6
2017-07-18T00:14:59.534Z,1015.6
2017-07-18T00:16:02.291Z,1015.6
2017-07-18T00:17:05.419Z,1015.6
2017-07-18T00:18:07.860Z,1015.6
2017-07-18T00:19:10.663Z,1015.6
2017-07-18T00:20:12.752Z,1015.6
2017-07-18T00:21:15.189Z,1015.6
2017-07-18T00:22:17.623Z,1015.6
2017-07-18T00:23:19.736Z,1015.6
2017-07-18T00:24:21.804Z,1015.6
2017-07-18T00:25:24.266Z,1015.6
2017-07-18T00:26:26.349Z,1015.7
2017-07-18T00:27:28.454Z,1015.6
2017-07-18T00:28:30.543Z,1015.6
2017-07-18T00:29:32.699Z,1015.6
2017-07-18T00:30:34.807Z,1015.7
2017-07-18T00:31:37.252Z,1015.6
2017-07-18T00:32:39.349Z,1015.6
2017-07-18T00:33:42.141Z,1015.6
2017-07-18T00:34:44.226Z,1015.7
2017-07-18T00:35:46.660Z,1015.6
2017-07-18T00:36:48.747Z,1015.6
2017-07-18T00:37:51.191Z,1015.6
2017-07-18T00:38:53.600Z,1015.6
2017-07-18T00:39:56.043Z,1015.7
2017-07-18T00:40:58.133Z,1015.6
2017-07-18T00:42:00.560Z,1015.6
2017-07-18T00:43:03.342Z,1015.6
2017-07-18T00:44:05.756Z,1015.6
2017-07-18T00:45:07.873Z,1015.7
2017-07-18T00:46:09.962Z,1015.7
2017-07-18T00:47:12.422Z,1015.6
2017-07-18T00:48:14.830Z,1015.6
2017-07-18T00:49:16.928Z,1015.6
2017-07-18T00:50:19.373Z,1015.7
2017-07-18T00:51:21.464Z,1015.6
2017-07-18T00:52:23.569Z,1015.6
2017-07-18T00:53:26.360Z,1015.7
2017-07-18T00:54:28.444Z,1015.7
2017-07-18T00:55:31.226Z,1015.7
2017-07-18T00:56:33.311Z,1015.7
2017-07-18T00:57:35.774Z,1015.7
2017-07-18T00:58:38.201Z,1015.7
2017-07-18T00:59:40.636Z,1015.8
2017-07-18T01:00:42.761Z,1015.7
2017-07-18T01:01:44.865Z,1015.8
2017-07-18T01:02:47.304Z,1015.8
2017-07-18T01:03:49.395Z,1015.8
2017-07-18T01:04:51.503Z,1015.8
2017-07-18T01:05:53.580Z,1015.8
2017-07-18T01:06:55.658Z,1015.7
2017-07-18T01:07:57.731Z,1015.7
2017-07-18T01:08:59.815Z,1015.8
2017-07-18T01:10:01.912Z,1015.8
2017-07-18T01:11:04.362Z,1015.8
2017-07-18T01:12:06.810Z,1015.8
2017-07-18T01:13:10.290Z,1015.8
2017-07-18T01:14:12.715Z,1015.8
2017-07-18T01:15:15.164Z,1015.7
2017-07-18T01:16:17.608Z,1015.7
2017-07-18T01:17:19.709Z,1015.7
2017-07-18T01:18:21.798Z,1015.8
2017-07-18T01:19:24.246Z,1015.8
2017-07-18T01:20:26.340Z,1015.8
2017-07-18T01:21:28.779Z,1015.8
2017-07-18T01:22:31.226Z,1015.8
2017-07-18T01:23:33.294Z,1015.8
2017-07-18T01:24:35.399Z,1015.8
2017-07-18T01:25:37.520Z,1015.8
2017-07-18T01:26:39.948Z,1015.8
2017-07-18T01:27:42.049Z,1015.8
2017-07-18T01:28:44.149Z,1015.8
2017-07-18T01:29:46.583Z,1015.8
2017-07-18T01:30:48.692Z,1015.8
2017-07-18T01:31:50.774Z,1015.8
2017-07-18T01:32:52.867Z,1015.8
2017-07-18T01:33:54.945Z,1015.7
2017-07-18T01:34:57.064Z,1015.8
2017-07-18T01:35:59.139Z,1015.7
2017-07-18T01:37:01.572Z,1015.7
2017-07-18T01:38:04.354Z,1015.7
2017-07-18T01:39:06.457Z,1015.7
2017-07-18T01:40:08.877Z,1015.8
2017-07-18T01:41:11.654Z,1015.8
2017-07-18T01:42:13.754Z,1015.7
2017-07-18T01:43:16.526Z,1015.7
2017-07-18T01:44:18.952Z,1015.7
2017-07-18T01:45:21.065Z,1015.7
2017-07-18T01:46:23.159Z,1015.7
2017-07-18T01:47:25.932Z,1015.7
2017-07-18T01:48:28.022Z,1015.7
2017-07-18T01:49:30.150Z,1015.7
2017-07-18T01:50:32.232Z,1015.6
2017-07-18T01:51:34.320Z,1015.6
2017-07-18T01:52:36.422Z,1015.6
2017-07-18T01:53:38.528Z,1015.7
2017-07-18T01:54:40.933Z,1015.6
2017-07-18T01:55:43.718Z,1015.6
2017-07-18T01:56:46.144Z,1015.6
2017-07-18T01:57:48.580Z,1015.6
2017-07-18T01:58:51.017Z,1015.6
2017-07-18T01:59:54.119Z,1015.6
2017-07-18T02:00:56.530Z,1015.6
2017-07-18T02:01:58.633Z,1015.6
2017-07-18T02:03:00.727Z,1015.6
2017-07-18T02:04:03.839Z,1015.6
2017-07-18T02:05:05.956Z,1015.6
2017-07-18T02:06:08.787Z,1015.6
2017-07-18T02:07:10.897Z,1015.6
2017-07-18T02:08:12.997Z,1015.6
2017-07-18T02:09:15.426Z,1015.6
2017-07-18T02:10:17.517Z,1015.6
2017-07-18T02:11:19.637Z,1015.6
2017-07-18T02:12:22.077Z,1015.6
2017-07-18T02:13:24.190Z,1015.6
2017-07-18T02:14:26.292Z,1015.6
2017-07-18T02:15:28.395Z,1015.6
2017-07-18T02:16:30.467Z,1015.6
2017-07-18T02:17:32.606Z,1015.6
2017-07-18T02:18:35.025Z,1015.6
2017-07-18T02:19:37.106Z,1015.6
2017-07-18T02:20:39.550Z,1015.6
2017-07-18T02:21:42.350Z,1015.6
2017-07-18T02:22:45.105Z,1015.6
2017-07-18T02:23:47.216Z,1015.6
2017-07-18T02:24:49.649Z,1015.6
2017-07-18T02:25:51.753Z,1015.6
2017-07-18T02:26:53.847Z,1015.6
2017-07-18T02:27:56.312Z,1015.6
2017-07-18T02:28:58.406Z,1015.6
2017-07-18T02:30:01.165Z,1015.6
2017-07-18T02:31:03.614Z,1015.6
2017-07-18T02:32:06.382Z,1015.6
2017-07-18T02:33:09.884Z,1015.6
2017-07-18T02:34:11.981Z,1015.6
2017-07-18T02:35:15.138Z,1015.6
2017-07-18T02:36:17.221Z,1015.6
2017-07-18T02:37:20.019Z,1015.6
2017-07-18T02:38:22.113Z,1015.6
2017-07-18T02:39:24.899Z,1015.7
2017-07-18T02:40:26.995Z,1015.6
2017-07-18T02:41:29.426Z,1015.7
2017-07-18T02:42:31.545Z,1015.7
2017-07-18T02:43:34.716Z,1015.7
2017-07-18T02:44:36.815Z,1015.7
2017-07-18T02:45:39.289Z,1015.6
2017-07-18T02:46:41.380Z,1015.7
2017-07-18T02:47:44.500Z,1015.7
2017-07-18T02:48:46.633Z,1015.6
2017-07-18T02:49:50.132Z,1015.6
2017-07-18T02:50:52.246Z,1015.7
2017-07-18T02:51:55.344Z,1015.7
2017-07-18T02:52:57.821Z,1015.7
2017-07-18T02:54:00.265Z,1015.7
2017-07-18T02:55:03.052Z,1015.7
2017-07-18T02:56:05.472Z,1015.7
2017-07-18T02:57:07.585Z,1015.7
2017-07-18T02:58:10.027Z,1015.7
2017-07-18T02:59:12.800Z,1015.7
2017-07-18T03:00:14.888Z,1015.8
2017-07-18T03:01:17.693Z,1015.7
2017-07-18T03:02:20.454Z,1015.7
2017-07-18T03:03:23.611Z,1015.7
2017-07-18T03:04:26.390Z,1015.7
2017-07-18T03:05:28.818Z,1015.7
2017-07-18T03:06:31.272Z,1015.7
2017-07-18T03:07:33.721Z,1015.7
2017-07-18T03:08:36.156Z,1015.7
2017-07-18T03:09:38.256Z,1015.7
2017-07-18T03:10:40.327Z,1015.7
2017-07-18T03:11:43.122Z,1015.7
2017-07-18T03:12:45.219Z,1015.7
2017-07-18T03:13:47.992Z,1015.7
2017-07-18T03:14:50.423Z,1015.7
2017-07-18T03:15:53.552Z,1015.7
2017-07-18T03:16:55.636Z,1015.7
2017-07-18T03:17:57.756Z,1015.8
2017-07-18T03:18:59.851Z,1015.8
2017-07-18T03:20:02.980Z,1015.7
2017-07-18T03:21:05.810Z,1015.8
2017-07-18T03:22:08.579Z,1015.7
2017-07-18T03:23:11.364Z,1015.8
2017-07-18T03:24:13.471Z,1015.8
2017-07-18T03:25:15.581Z,1015.8
2017-07-18T03:26:18.024Z,1015.8
2017-07-18T03:27:20.802Z,1015.8
2017-07-18T03:28:23.226Z,1015.8
2017-07-18T03:29:25.661Z,1015.8
2017-07-18T03:30:27.745Z,1015.8
2017-07-18T03:31:29.855Z,1015.9
2017-07-18T03:32:31.950Z,1015.9
2017-07-18T03:33:34.725Z,1015.9
2017-07-18T03:34:37.172Z,1015.9
2017-07-18T03:35:40.314Z,1015.8
2017-07-18T03:36:42.758Z,1015.9
2017-07-18T03:37:45.870Z,1015.9
2017-07-18T03:38:47.959Z,1015.9
2017-07-18T03:39:50.064Z,1015.9
2017-07-18T03:40:52.485Z,1015.9
2017-07-18T03:41:55.277Z,1015.9
2017-07-18T03:42:57.731Z,1015.9
2017-07-18T03:43:59.829Z,1015.9
2017-07-18T03:45:02.277Z,1015.9
2017-07-18T03:46:05.054Z,1015.9
2017-07-18T03:47:07.493Z,1015.9
2017-07-18T03:48:09.579Z,1016
2017-07-18T03:49:12.378Z,1016
2017-07-18T03:50:14.477Z,1016
2017-07-18T03:51:17.258Z,1016
2017-07-18T03:52:20.035Z,1016
2017-07-18T03:53:22.487Z,1016
2017-07-18T03:54:25.257Z,1016
2017-07-18T03:55:28.385Z,1016
2017-07-18T03:56:30.483Z,1016
2017-07-18T03:57:32.583Z,1016
2017-07-18T03:58:35.374Z,1016.1
2017-07-18T03:59:38.487Z,1016.1
2017-07-18T04:00:41.267Z,1016
2017-07-18T04:01:44.048Z,1016
2017-07-18T04:02:46.806Z,1016.1
2017-07-18T04:03:49.278Z,1016.1
2017-07-18T04:04:51.381Z,1016.1
2017-07-18T04:05:54.538Z,1016.1
2017-07-18T04:06:56.652Z,1016.1
2017-07-18T04:07:58.764Z,1016.1
2017-07-18T04:09:01.209Z,1016.1
2017-07-18T04:10:04.334Z,1016.2
2017-07-18T04:11:06.787Z,1016.2
2017-07-18T04:12:09.888Z,1016.2
2017-07-18T04:13:11.987Z,1016.1
2017-07-18T04:14:14.451Z,1016.1
2017-07-18T04:15:17.227Z,1016.1
2017-07-18T04:16:19.339Z,1016.1
2017-07-18T04:17:22.455Z,1016.2
2017-07-18T04:18:24.549Z,1016.2
2017-07-18T04:19:27.318Z,1016.2
2017-07-18T04:20:29.776Z,1016.2
2017-07-18T04:21:32.256Z,1016.2
2017-07-18T04:22:34.369Z,1016.2
2017-07-18T04:23:37.541Z,1016.2
2017-07-18T04:24:39.980Z,1016.2
2017-07-18T04:25:42.099Z,1016.2
2017-07-18T04:26:44.863Z,1016.2
2017-07-18T04:27:47.659Z,1016.2
2017-07-18T04:28:50.113Z,1016.2
2017-07-18T04:29:52.551Z,1016.2
2017-07-18T04:30:54.645Z,1016.2
2017-07-18T04:31:57.772Z,1016.2
2017-07-18T04:33:00.210Z,1016.1
2017-07-18T04:34:02.665Z,1016.2
2017-07-18T04:35:05.108Z,1016.2
2017-07-18T04:36:07.207Z,1016.2
2017-07-18T04:37:09.691Z,1016.2
2017-07-18T04:38:11.780Z,1016.2
2017-07-18T04:39:14.231Z,1016.1
2017-07-18T04:40:16.316Z,1016.2
2017-07-18T04:41:18.778Z,1016.2
2017-07-18T04:42:21.220Z,1016.2
2017-07-18T04:43:23.660Z,1016.2
2017-07-18T04:44:25.751Z,1016.2
2017-07-18T04:45:27.864Z,1016.2
2017-07-18T04:46:29.941Z,1016.2
2017-07-18T04:47:32.050Z,1016.3
2017-07-18T04:48:34.489Z,1016.2
2017-07-18T04:49:37.295Z,1016.2
2017-07-18T04:50:39.709Z,1016.2
2017-07-18T04:51:42.874Z,1016.2
2017-07-18T04:52:44.968Z,1016.2
2017-07-18T04:53:47.422Z,1016.2
2017-07-18T04:54:49.510Z,1016.2
2017-07-18T04:55:51.610Z,1016.2
2017-07-18T04:56:54.402Z,1016.3
2017-07-18T04:57:56.499Z,1016.2
2017-07-18T04:58:58.594Z,1016.2
2017-07-18T05:00:01.055Z,1016.2
2017-07-18T05:01:04.514Z,1016.3
2017-07-18T05:02:07.293Z,1016.2
2017-07-18T05:03:09.742Z,1016.3
2017-07-18T05:04:11.864Z,1016.2
2017-07-18T05:05:13.960Z,1016.2
2017-07-18T05:06:16.071Z,1016.3
2017-07-18T05:07:18.869Z,1016.3
2017-07-18T05:08:20.977Z,1016.3
2017-07-18T05:09:23.075Z,1016.3
2017-07-18T05:10:25.188Z,1016.3
2017-07-18T05:11:27.994Z,1016.3
2017-07-18T05:12:30.104Z,1016.3
2017-07-18T05:13:32.562Z,1016.3
2017-07-18T05:14:34.654Z,1016.3
2017-07-18T05:15:37.112Z,1016.2
2017-07-18T05:16:39.559Z,1016.3
2017-07-18T05:17:41.669Z,1016.3
2017-07-18T05:18:43.762Z,1016.3
2017-07-18T05:19:46.914Z,1016.2
2017-07-18T05:20:49.351Z,1016.3
2017-07-18T05:21:51.762Z,1016.3
2017-07-18T05:22:53.862Z,1016.3
2017-07-18T05:23:56.321Z,1016.3
2017-07-18T05:24:58.437Z,1016.2
2017-07-18T05:26:00.549Z,1016.3
2017-07-18T05:27:02.977Z,1016.2
2017-07-18T05:28:05.451Z,1016.2
2017-07-18T05:29:08.582Z,1016.2
2017-07-18T05:30:10.687Z,1016.3
2017-07-18T05:31:13.156Z,1016.3
2017-07-18T05:32:15.260Z,1016.3
2017-07-18T05:33:17.683Z,1016.3
2017-07-18T05:34:19.780Z,1016.3
2017-07-18T05:35:21.887Z,1016.3
2017-07-18T05:36:24.014Z,1016.3
2017-07-18T05:37:26.102Z,1016.3
2017-07-18T05:38:28.197Z,1016.3
2017-07-18T05:39:30.328Z,1016.4
2017-07-18T05:40:32.406Z,1016.3
2017-07-18T05:41:35.239Z,1016.3
2017-07-18T05:42:37.342Z,1016.3
2017-07-18T05:43:39.779Z,1016.3
2017-07-18T05:44:42.584Z,1016.3
2017-07-18T05:45:45.026Z,1016.3
2017-07-18T05:46:47.455Z,1016.3
2017-07-18T05:47:50.239Z,1016.4
2017-07-18T05:48:52.349Z,1016.3
2017-07-18T05:49:54.444Z,1016.3
2017-07-18T05:50:56.558Z,1016.3
2017-07-18T05:51:58.666Z,1016.3
2017-07-18T05:53:01.459Z,1016.3
2017-07-18T05:54:03.924Z,1016.3
2017-07-18T05:55:06.708Z,1016.3
2017-07-18T05:56:09.241Z,1016.3
2017-07-18T05:57:11.369Z,1016.4
2017-07-18T05:58:13.460Z,1016.3
2017-07-18T05:59:15.581Z,1016.4
2017-07-18T06:00:18.022Z,1016.4
2017-07-18T06:01:20.472Z,1016.4
2017-07-18T06:02:22.900Z,1016.4
2017-07-18T06:03:25.057Z,1016.4
2017-07-18T06:04:27.170Z,1016.4
2017-07-18T06:05:29.631Z,1016.3
2017-07-18T06:06:32.101Z,1016.4
2017-07-18T06:07:34.548Z,1016.3
2017-07-18T06:08:36.644Z,1016.4
2017-07-18T06:09:38.755Z,1016.4
2017-07-18T06:10:41.871Z,1016.4
2017-07-18T06:11:43.970Z,1016.4
2017-07-18T06:12:46.070Z,1016.4
2017-07-18T06:13:48.485Z,1016.5
2017-07-18T06:14:50.590Z,1016.5
2017-07-18T06:15:53.048Z,1016.5
2017-07-18T06:16:55.144Z,1016.5
2017-07-18T06:17:57.587Z,1016.5
2017-07-18T06:18:59.697Z,1016.5
2017-07-18T06:20:02.202Z,1016.5
2017-07-18T06:21:05.368Z,1016.5
2017-07-18T06:22:08.151Z,1016.5
2017-07-18T06:23:10.652Z,1016.5
2017-07-18T06:24:13.103Z,1016.4
2017-07-18T06:25:15.557Z,1016.5
2017-07-18T06:26:17.991Z,1016.4
2017-07-18T06:27:20.442Z,1016.4
2017-07-18T06:28:22.898Z,1016.5
2017-07-18T06:29:25.728Z,1016.5
2017-07-18T06:30:27.822Z,1016.5
2017-07-18T06:31:30.276Z,1016.5
2017-07-18T06:32:32.391Z,1016.5
2017-07-18T06:33:34.493Z,1016.5
2017-07-18T06:34:36.588Z,1016.5
2017-07-18T06:35:39.032Z,1016.5
2017-07-18T06:36:41.165Z,1016.5
2017-07-18T06:37:43.591Z,1016.5
2017-07-18T06:38:46.032Z,1016.5
2017-07-18T06:39:48.167Z,1016.4
2017-07-18T06:40:50.594Z,1016.5
2017-07-18T06:41:53.053Z,1016.5
2017-07-18T06:42:55.145Z,1016.4
2017-07-18T06:43:57.245Z,1016.4
2017-07-18T06:44:59.368Z,1016.4
2017-07-18T06:46:01.469Z,1016.5
2017-07-18T06:47:03.933Z,1016.4
2017-07-18T06:48:06.404Z,1016.5
2017-07-18T06:49:08.516Z,1016.5
2017-07-18T06:50:10.650Z,1016.5
2017-07-18T06:51:13.105Z,1016.5
2017-07-18T06:52:15.200Z,1016.5
2017-07-18T06:53:17.674Z,1016.5
2017-07-18T06:54:20.100Z,1016.5
2017-07-18T06:55:22.563Z,1016.5
2017-07-18T06:56:24.658Z,1016.5
2017-07-18T06:57:27.119Z,1016.5
2017-07-18T06:58:29.220Z,1016.4
2017-07-18T06:59:32.033Z,1016.5
2017-07-18T07:00:34.529Z,1016.4
2017-07-18T07:01:36.629Z,1016.4
2017-07-18T07:02:39.395Z,1016.4
2017-07-18T07:03:42.191Z,1016.4
2017-07-18T07:04:44.323Z,1016.4
2017-07-18T07:05:46.774Z,1016.4
2017-07-18T07:06:49.214Z,1016.4
2017-07-18T07:07:52.017Z,1016.4
2017-07-18T07:08:54.121Z,1016.4
2017-07-18T07:09:56.235Z,1016.4
2017-07-18T07:10:58.357Z,1016.4
2017-07-18T07:12:00.483Z,1016.4
2017-07-18T07:13:02.929Z,1016.4
2017-07-18T07:14:05.058Z,1016.4
2017-07-18T07:15:07.177Z,1016.3
2017-07-18T07:16:09.625Z,1016.4
2017-07-18T07:17:11.762Z,1016.3
2017-07-18T07:18:14.566Z,1016.4
2017-07-18T07:19:17.037Z,1016.3
2017-07-18T07:20:19.816Z,1016.4
2017-07-18T07:21:22.292Z,1016.4
2017-07-18T07:22:24.403Z,1016.4
2017-07-18T07:23:26.529Z,1016.4
2017-07-18T07:24:28.643Z,1016.4
2017-07-18T07:25:30.781Z,1016.4
2017-07-18T07:26:33.247Z,1016.4
2017-07-18T07:27:36.019Z,1016.4
2017-07-18T07:28:38.143Z,1016.4
2017-07-18T07:29:40.594Z,1016.4
2017-07-18T07:30:43.035Z,1016.4
2017-07-18T07:31:45.857Z,1016.4
2017-07-18T07:32:47.964Z,1016.4
2017-07-18T07:33:50.087Z,1016.4
2017-07-18T07:34:52.180Z,1016.4
2017-07-18T07:35:54.628Z,1016.4
2017-07-18T07:36:57.101Z,1016.5
2017-07-18T07:37:59.552Z,1016.4
2017-07-18T07:39:02.331Z,1016.4
2017-07-18T07:40:04.777Z,1016.4
2017-07-18T07:41:07.220Z,1016.4
2017-07-18T07:42:10.041Z,1016.4
2017-07-18T07:43:12.167Z,1016.4
2017-07-18T07:44:14.267Z,1016.4
2017-07-18T07:45:16.750Z,1016.4
2017-07-18T07:46:19.202Z,1016.4
2017-07-18T07:47:21.640Z,1016.4
2017-07-18T07:48:23.730Z,1016.4
2017-07-18T07:49:25.836Z,1016.4
2017-07-18T07:50:28.288Z,1016.4
2017-07-18T07:51:30.764Z,1016.4
2017-07-18T07:52:32.850Z,1016.4
2017-07-18T07:53:34.968Z,1016.4
2017-07-18T07:54:37.085Z,1016.4
2017-07-18T07:55:39.180Z,1016.4
2017-07-18T07:56:41.621Z,1016.4
2017-07-18T07:57:44.100Z,1016.4
2017-07-18T07:58:46.540Z,1016.3
2017-07-18T07:59:48.993Z,1016.4
2017-07-18T08:00:51.081Z,1016.4
2017-07-18T08:01:53.559Z,1016.4
2017-07-18T08:02:56.002Z,1016.4
2017-07-18T08:03:58.098Z,1016.4
2017-07-18T08:05:00.214Z,1016.4
2017-07-18T08:06:02.666Z,1016.4
2017-07-18T08:07:04.800Z,1016.5
2017-07-18T08:08:06.897Z,1016.5
2017-07-18T08:09:09.005Z,1016.5
2017-07-18T08:10:11.118Z,1016.5
2017-07-18T08:11:13.557Z,1016.5
2017-07-18T08:12:16.000Z,1016.5
2017-07-18T08:13:18.103Z,1016.5
2017-07-18T08:14:20.200Z,1016.5
2017-07-18T08:15:22.288Z,1016.5
2017-07-18T08:16:24.369Z,1016.5
2017-07-18T08:17:26.481Z,1016.5
2017-07-18T08:18:28.570Z,1016.5
2017-07-18T08:19:30.668Z,1016.4
2017-07-18T08:20:33.103Z,1016.4
2017-07-18T08:21:35.222Z,1016.5
2017-07-18T08:22:38.002Z,1016.4
2017-07-18T08:23:40.096Z,1016.5
2017-07-18T08:24:42.539Z,1016.5
2017-07-18T08:25:44.635Z,1016.5
2017-07-18T08:26:47.076Z,1016.5
2017-07-18T08:27:49.175Z,1016.5
2017-07-18T08:28:51.602Z,1016.4
2017-07-18T08:29:53.720Z,1016.4
2017-07-18T08:30:56.163Z,1016.5
2017-07-18T08:31:58.251Z,1016.4
2017-07-18T08:33:01.052Z,1016.4
2017-07-18T08:34:03.162Z,1016.4
2017-07-18T08:35:05.597Z,1016.4
2017-07-18T08:36:08.428Z,1016.4
2017-07-18T08:37:10.528Z,1016.4
2017-07-18T08:38:12.622Z,1016.4
2017-07-18T08:39:14.728Z,1016.4
2017-07-18T08:40:16.806Z,1016.3
2017-07-18T08:41:18.927Z,1016.4
2017-07-18T08:42:21.370Z,1016.4
2017-07-18T08:43:23.455Z,1016.4
2017-07-18T08:44:25.571Z,1016.3
2017-07-18T08:45:27.667Z,1016.4
2017-07-18T08:46:29.759Z,1016.4
2017-07-18T08:47:32.210Z,1016.4
2017-07-18T08:48:34.321Z,1016.3
2017-07-18T08:49:36.438Z,1016.3
2017-07-18T08:50:38.519Z,1016.3
2017-07-18T08:51:40.614Z,1016.3
2017-07-18T08:52:42.719Z,1016.3
2017-07-18T08:53:45.183Z,1016.3
2017-07-18T08:54:47.280Z,1016.4
2017-07-18T08:55:49.366Z,1016.3
2017-07-18T08:56:51.833Z,1016.4
2017-07-18T08:57:54.295Z,1016.3
2017-07-18T08:58:56.395Z,1016.4
2017-07-18T08:59:58.472Z,1016.4
2017-07-18T09:01:00.952Z,1016.3
2017-07-18T09:02:03.404Z,1016.4
2017-07-18T09:03:06.169Z,1016.3
2017-07-18T09:04:08.262Z,1016.3
2017-07-18T09:05:10.701Z,1016.3
2017-07-18T09:06:12.806Z,1016.3
2017-07-18T09:07:14.913Z,1016.3
2017-07-18T09:08:17.681Z,1016.3
2017-07-18T09:09:20.490Z,1016.3
2017-07-18T09:10:22.576Z,1016.3
2017-07-18T09:11:24.671Z,1016.3
2017-07-18T09:12:26.767Z,1016.3
2017-07-18T09:13:28.863Z,1016.3
2017-07-18T09:14:30.984Z,1016.3
2017-07-18T09:15:33.413Z,1016.3
2017-07-18T09:16:35.515Z,1016.3
2017-07-18T09:17:37.620Z,1016.3
2017-07-18T09:18:39.710Z,1016.3
2017-07-18T09:19:42.154Z,1016.2
2017-07-18T09:20:44.249Z,1016.2
2017-07-18T09:21:46.367Z,1016.2
2017-07-18T09:22:48.450Z,1016.2
2017-07-18T09:23:50.555Z,1016.2
2017-07-18T09:24:52.659Z,1016.2
2017-07-18T09:25:54.765Z,1016.2
2017-07-18T09:26:57.209Z,1016.2
2017-07-18T09:27:59.639Z,1016.2
2017-07-18T09:29:02.084Z,1016.1
2017-07-18T09:30:04.531Z,1016.2
2017-07-18T09:31:06.600Z,1016.2
2017-07-18T09:32:08.714Z,1016.2
2017-07-18T09:33:10.816Z,1016.2
2017-07-18T09:34:13.256Z,1016.2
2017-07-18T09:35:15.417Z,1016.1
2017-07-18T09:36:17.669Z,1016.1
2017-07-18T09:37:19.789Z,1016.1
2017-07-18T09:38:22.586Z,1016.1
2017-07-18T09:39:24.685Z,1016.1
2017-07-18T09:40:27.103Z,1016.1
2017-07-18T09:41:29.218Z,1016.1
2017-07-18T09:42:31.318Z,1016.1
2017-07-18T09:43:33.419Z,1016.1
2017-07-18T09:44:35.846Z,1016.1
2017-07-18T09:45:37.975Z,1016.1
2017-07-18T09:46:40.419Z,1016.1
2017-07-18T09:47:42.528Z,1016.1
2017-07-18T09:48:44.634Z,1016.1
2017-07-18T09:49:46.741Z,1016.2
2017-07-18T09:50:48.867Z,1016.2
2017-07-18T09:51:50.960Z,1016.2
2017-07-18T09:52:53.063Z,1016.2
2017-07-18T09:53:55.159Z,1016.2
2017-07-18T09:54:57.283Z,1016.2
2017-07-18T09:55:59.705Z,1016.2
2017-07-18T09:57:02.155Z,1016.2
2017-07-18T09:58:04.268Z,1016.2
2017-07-18T09:59:06.695Z,1016.2
2017-07-18T10:00:09.142Z,1016.2
2017-07-18T10:01:11.244Z,1016.2
2017-07-18T10:02:13.356Z,1016.2
2017-07-18T10:03:16.131Z,1016.2
2017-07-18T10:04:18.223Z,1016.1
2017-07-18T10:05:20.695Z,1016.2
2017-07-18T10:06:22.773Z,1016.1
2017-07-18T10:07:24.881Z,1016.1
2017-07-18T10:08:26.992Z,1016.2
2017-07-18T10:09:29.087Z,1016.1
2017-07-18T10:10:31.181Z,1016.1
2017-07-18T10:11:33.293Z,1016.1
2017-07-18T10:12:35.386Z,1016.1
2017-07-18T10:13:37.549Z,1016
2017-07-18T10:14:39.640Z,1016
2017-07-18T10:15:41.745Z,1016.1
2017-07-18T10:16:43.851Z,1016.1
2017-07-18T10:17:45.950Z,1016
2017-07-18T10:18:48.422Z,1016
2017-07-18T10:19:50.519Z,1016
2017-07-18T10:20:52.609Z,1015.9
2017-07-18T10:21:54.718Z,1016
2017-07-18T10:22:56.805Z,1015.9
2017-07-18T10:23:59.245Z,1015.9
2017-07-18T10:25:01.359Z,1015.8
2017-07-18T10:26:03.799Z,1015.8
2017-07-18T10:27:05.894Z,1015.9
2017-07-18T10:28:08.329Z,1015.8
2017-07-18T10:29:10.430Z,1015.9
2017-07-18T10:30:12.538Z,1015.8
2017-07-18T10:31:14.992Z,1015.9
2017-07-18T10:32:17.086Z,1015.8
2017-07-18T10:33:19.193Z,1015.9
2017-07-18T10:34:21.303Z,1015.8
2017-07-18T10:35:23.740Z,1015.8
2017-07-18T10:36:25.855Z,1015.8
2017-07-18T10:37:27.966Z,1015.8
2017-07-18T10:38:30.410Z,1015.8
2017-07-18T10:39:32.499Z,1015.8
2017-07-18T10:40:34.629Z,1015.8
2017-07-18T10:41:37.059Z,1015.8
2017-07-18T10:42:39.835Z,1015.8
2017-07-18T10:43:41.935Z,1015.8
2017-07-18T10:44:44.076Z,1015.8
2017-07-18T10:45:46.861Z,1015.8
2017-07-18T10:46:49.292Z,1015.8
2017-07-18T10:47:51.734Z,1015.8
2017-07-18T10:48:53.858Z,1015.8
2017-07-18T10:49:55.958Z,1015.8
2017-07-18T10:50:58.053Z,1015.8
2017-07-18T10:52:00.504Z,1015.8
2017-07-18T10:53:03.645Z,1015.8
2017-07-18T10:54:06.081Z,1015.8
2017-07-18T10:55:08.541Z,1015.8
2017-07-18T10:56:10.637Z,1015.8
2017-07-18T10:57:12.739Z,1015.7
2017-07-18T10:58:15.535Z,1015.7
2017-07-18T10:59:17.641Z,1015.7
2017-07-18T11:00:20.438Z,1015.8
2017-07-18T11:01:22.527Z,1015.7
2017-07-18T11:02:24.650Z,1015.8
2017-07-18T11:03:26.772Z,1015.7
2017-07-18T11:04:28.886Z,1015.7
2017-07-18T11:05:31.327Z,1015.7
2017-07-18T11:06:34.108Z,1015.7
2017-07-18T11:07:36.568Z,1015.7
2017-07-18T11:08:39.007Z,1015.7
2017-07-18T11:09:41.484Z,1015.7
2017-07-18T11:10:43.600Z,1015.7
2017-07-18T11:11:45.723Z,1015.7
2017-07-18T11:12:47.822Z,1015.7
2017-07-18T11:13:49.935Z,1015.7
2017-07-18T11:14:52.034Z,1015.7
2017-07-18T11:15:54.466Z,1015.7
2017-07-18T11:16:56.914Z,1015.6
2017-07-18T11:17:59.358Z,1015.6
2017-07-18T11:19:01.474Z,1015.6
2017-07-18T11:20:03.997Z,1015.6
2017-07-18T11:21:06.203Z,1015.6
2017-07-18T11:22:08.639Z,1015.6
2017-07-18T11:23:10.742Z,1015.7
2017-07-18T11:24:12.869Z,1015.6
2017-07-18T11:25:15.319Z,1015.7
2017-07-18T11:26:17.764Z,1015.6
2017-07-18T11:27:19.853Z,1015.6
2017-07-18T11:28:21.950Z,1015.7
2017-07-18T11:29:24.424Z,1015.6
2017-07-18T11:30:26.509Z,1015.6
2017-07-18T11:31:28.964Z,1015.6
2017-07-18T11:32:31.071Z,1015.6
2017-07-18T11:33:33.177Z,1015.5
2017-07-18T11:34:35.633Z,1015.5
2017-07-18T11:35:37.754Z,1015.5
2017-07-18T11:36:39.836Z,1015.5
2017-07-18T11:37:41.954Z,1015.5
2017-07-18T11:38:44.052Z,1015.5
2017-07-18T11:39:46.168Z,1015.5
2017-07-18T11:40:48.279Z,1015.6
2017-07-18T11:41:50.405Z,1015.5
2017-07-18T11:42:52.499Z,1015.5
2017-07-18T11:43:54.611Z,1015.5
2017-07-18T11:44:56.723Z,1015.5
2017-07-18T11:45:59.516Z,1015.5
2017-07-18T11:47:01.993Z,1015.5
2017-07-18T11:48:04.429Z,1015.5
2017-07-18T11:49:06.537Z,1015.5
2017-07-18T11:50:09.002Z,1015.5
2017-07-18T11:51:11.785Z,1015.5
2017-07-18T11:52:14.236Z,1015.5
2017-07-18T11:53:16.343Z,1015.5
2017-07-18T11:54:18.800Z,1015.5
2017-07-18T11:55:21.223Z,1015.5
2017-07-18T11:56:23.335Z,1015.5
2017-07-18T11:57:25.807Z,1015.4
2017-07-18T11:58:27.920Z,1015.4
2017-07-18T11:59:30.045Z,1015.4
2017-07-18T12:00:32.171Z,1015.4
2017-07-18T12:01:34.274Z,1015.3
2017-07-18T12:02:36.378Z,1015.4
2017-07-18T12:03:38.477Z,1015.4
2017-07-18T12:04:40.604Z,1015.3
2017-07-18T12:05:42.708Z,1015.3
2017-07-18T12:06:44.822Z,1015.3
2017-07-18T12:07:47.351Z,1015.3
2017-07-18T12:08:49.467Z,1015.3
2017-07-18T12:09:51.566Z,1015.2
2017-07-18T12:10:53.678Z,1015.2
2017-07-18T12:11:56.164Z,1015.3
2017-07-18T12:12:58.979Z,1015.3
2017-07-18T12:14:01.082Z,1015.2
2017-07-18T12:15:03.190Z,1015.2
2017-07-18T12:16:05.668Z,1015.2
2017-07-18T12:17:08.125Z,1015.2
2017-07-18T12:18:10.581Z,1015.3
2017-07-18T12:19:13.031Z,1015.3
2017-07-18T12:20:15.135Z,1015.3
2017-07-18T12:21:17.247Z,1015.3
2017-07-18T12:22:19.356Z,1015.2
2017-07-18T12:23:21.473Z,1015.2
2017-07-18T12:24:23.594Z,1015.2
2017-07-18T12:25:25.689Z,1015.1
2017-07-18T12:26:28.128Z,1015.2
2017-07-18T12:27:30.586Z,1015.2
2017-07-18T12:28:32.671Z,1015.2
2017-07-18T12:29:34.806Z,1015.2
2017-07-18T12:30:37.247Z,1015.2
2017-07-18T12:31:39.679Z,1015.2
2017-07-18T12:32:42.482Z,1015.2
2017-07-18T12:33:44.933Z,1015.2
2017-07-18T12:34:47.046Z,1015.1
2017-07-18T12:35:49.151Z,1015.1
2017-07-18T12:36:51.582Z,1015.1
2017-07-18T12:37:53.697Z,1015.1
2017-07-18T12:38:55.813Z,1015.1
2017-07-18T12:39:57.953Z,1015.1
2017-07-18T12:41:00.394Z,1015
2017-07-18T12:42:02.493Z,1015
2017-07-18T12:43:04.610Z,1015
2017-07-18T12:44:06.710Z,1015
2017-07-18T12:45:09.527Z,1015
2017-07-18T12:46:11.968Z,1015
2017-07-18T12:47:14.410Z,1015
2017-07-18T12:48:16.546Z,1015
2017-07-18T12:49:18.680Z,1014.9
2017-07-18T12:50:20.765Z,1014.9
2017-07-18T12:51:22.876Z,1014.9
2017-07-18T12:52:25.003Z,1014.9
2017-07-18T12:53:27.113Z,1014.9
2017-07-18T12:54:29.248Z,1014.9
2017-07-18T12:55:31.364Z,1014.9
2017-07-18T12:56:33.480Z,1014.8
2017-07-18T12:57:35.581Z,1014.9
2017-07-18T12:58:37.691Z,1014.8
2017-07-18T12:59:39.834Z,1014.8